Kezdőlap
METAR-TAF:

METAR-TAF

Repülőterek :

Black River Falls, Wisconsin, Amerikai Egyesült Államok

földrajzi szélesség: 44-15-03N, földrajzi hosszúság: 090-51-19W, magasság: 255 m

Jelenlegi meteorológiai megfigyelések

A jelentés 15 perccel ezelõtt készült, 13:15 UTC
Nyugati szél 6 kt
Hőmérséklet -2°C
Páratartalom 59%
Légköri nyomás 1025 hPa
Látótávolság: 16.1 km
Derült ég

METAR: KBCK 041315Z AUTO 27006KT 10SM CLR M02/M09 A3026 RMK AO2 T10201086

Idő: 07:30 (13:30 UTC)


TAF: hiányzik

Meteorológiai megfigyelések és előrejelzések több, mint 4000 repülőtéren (METAR és TAF jelentéseket).

A térképen piros és sárga pontok jelzik az elérhető meteorológiai állomásokat.

Mozgassa az egeret a pont fölött, hogy megjelenjen az állomás neve.

Azután kattintson az időjárási megfigyelések és előrejelzések megtekintéséhez.

A térkép megváltoztatása: kattintson a fekete keresztel jelölt zöld gombra ráközelítéshez, a vonallal jelölt zöld gombra távolításhoz, vagy a zöld nyilakra a szomszédos térképek eléréséhez.


METAR-TAF: